sensor_id;sensor_type;location;lat;lon;timestamp;temperature;humidity
35970;DHT22;22448;51.298;6.430;2023-02-26T00:01:20;-0.50;99.90
35970;DHT22;22448;51.298;6.430;2023-02-26T00:03:55;-0.40;99.90
35970;DHT22;22448;51.298;6.430;2023-02-26T00:06:24;-0.30;99.90
35970;DHT22;22448;51.298;6.430;2023-02-26T00:08:52;-0.20;99.90
35970;DHT22;22448;51.298;6.430;2023-02-26T00:11:19;-0.20;99.90
35970;DHT22;22448;51.298;6.430;2023-02-26T00:13:47;-0.20;99.90
35970;DHT22;22448;51.298;6.430;2023-02-26T00:16:21;-0.20;99.90
35970;DHT22;22448;51.298;6.430;2023-02-26T00:18:49;-0.20;99.90
35970;DHT22;22448;51.298;6.430;2023-02-26T00:21:18;-0.20;99.90
35970;DHT22;22448;51.298;6.430;2023-02-26T00:23:45;-0.20;99.90
35970;DHT22;22448;51.298;6.430;2023-02-26T00:26:12;-0.20;99.90
35970;DHT22;22448;51.298;6.430;2023-02-26T00:28:40;-0.20;99.90
35970;DHT22;22448;51.298;6.430;2023-02-26T00:31:07;-0.20;99.90
35970;DHT22;22448;51.298;6.430;2023-02-26T00:33:35;-0.10;99.90
35970;DHT22;22448;51.298;6.430;2023-02-26T00:36:19;-0.10;99.90
35970;DHT22;22448;51.298;6.430;2023-02-26T00:41:28;-0.10;99.90
35970;DHT22;22448;51.298;6.430;2023-02-26T00:43:56;-0.10;99.90
35970;DHT22;22448;51.298;6.430;2023-02-26T00:49:30;-0.10;99.90
35970;DHT22;22448;51.298;6.430;2023-02-26T00:52:11;0.00;99.90
35970;DHT22;22448;51.298;6.430;2023-02-26T00:54:39;0.00;99.90
35970;DHT22;22448;51.298;6.430;2023-02-26T00:57:06;0.10;99.90
35970;DHT22;22448;51.298;6.430;2023-02-26T00:59:43;0.00;99.90
35970;DHT22;22448;51.298;6.430;2023-02-26T01:02:34;0.00;99.90
35970;DHT22;22448;51.298;6.430;2023-02-26T01:05:02;0.00;99.90
35970;DHT22;22448;51.298;6.430;2023-02-26T01:10:12;0.10;99.90
35970;DHT22;22448;51.298;6.430;2023-02-26T01:12:40;0.10;99.90
35970;DHT22;22448;51.298;6.430;2023-02-26T01:15:08;0.10;99.90
35970;DHT22;22448;51.298;6.430;2023-02-26T01:20:44;0.10;99.90
35970;DHT22;22448;51.298;6.430;2023-02-26T01:23:15;0.00;99.90
35970;DHT22;22448;51.298;6.430;2023-02-26T01:26:26;0.00;99.90
35970;DHT22;22448;51.298;6.430;2023-02-26T01:28:52;0.00;99.90
35970;DHT22;22448;51.298;6.430;2023-02-26T01:33:57;-0.10;99.90
35970;DHT22;22448;51.298;6.430;2023-02-26T01:36:31;-0.20;99.90
35970;DHT22;22448;51.298;6.430;2023-02-26T01:39:02;-0.20;99.90
35970;DHT22;22448;51.298;6.430;2023-02-26T01:41:54;-0.20;99.90
35970;DHT22;22448;51.298;6.430;2023-02-26T01:44:30;-0.20;99.90
35970;DHT22;22448;51.298;6.430;2023-02-26T01:49:32;-0.30;99.90
35970;DHT22;22448;51.298;6.430;2023-02-26T01:52:55;-0.30;99.90
35970;DHT22;22448;51.298;6.430;2023-02-26T01:54:53;-0.30;99.90
35970;DHT22;22448;51.298;6.430;2023-02-26T01:57:21;-0.40;99.90
35970;DHT22;22448;51.298;6.430;2023-02-26T01:59:50;-0.40;99.90
35970;DHT22;22448;51.298;6.430;2023-02-26T02:02:22;-0.50;99.90
35970;DHT22;22448;51.298;6.430;2023-02-26T02:04:52;-0.50;99.90
35970;DHT22;22448;51.298;6.430;2023-02-26T02:07:19;-0.50;99.90
35970;DHT22;22448;51.298;6.430;2023-02-26T02:09:46;-0.50;99.90
35970;DHT22;22448;51.298;6.430;2023-02-26T02:23:07;-0.70;99.90
35970;DHT22;22448;51.298;6.430;2023-02-26T02:34:06;-0.80;99.90
35970;DHT22;22448;51.298;6.430;2023-02-26T02:36:42;-0.80;99.90
35970;DHT22;22448;51.298;6.430;2023-02-26T02:39:17;-0.80;99.90
35970;DHT22;22448;51.298;6.430;2023-02-26T02:41:49;-0.80;99.90
35970;DHT22;22448;51.298;6.430;2023-02-26T02:44:18;-0.90;99.90
35970;DHT22;22448;51.298;6.430;2023-02-26T02:46:49;-0.90;99.90
35970;DHT22;22448;51.298;6.430;2023-02-26T02:49:48;-0.90;99.90
35970;DHT22;22448;51.298;6.430;2023-02-26T02:52:46;-0.90;99.90
35970;DHT22;22448;51.298;6.430;2023-02-26T02:55:09;-0.90;99.90
35970;DHT22;22448;51.298;6.430;2023-02-26T02:58:16;-0.90;99.90
35970;DHT22;22448;51.298;6.430;2023-02-26T03:00:39;-0.90;99.90
35970;DHT22;22448;51.298;6.430;2023-02-26T03:03:30;-1.00;99.90
35970;DHT22;22448;51.298;6.430;2023-02-26T03:05:59;-1.00;99.90
35970;DHT22;22448;51.298;6.430;2023-02-26T03:08:29;-1.10;99.90
35970;DHT22;22448;51.298;6.430;2023-02-26T03:10:57;-1.10;99.90
35970;DHT22;22448;51.298;6.430;2023-02-26T03:13:25;-1.10;99.90
35970;DHT22;22448;51.298;6.430;2023-02-26T03:21:55;-1.20;99.90
35970;DHT22;22448;51.298;6.430;2023-02-26T03:25:09;-1.20;99.90
35970;DHT22;22448;51.298;6.430;2023-02-26T03:30:18;-1.30;99.90
35970;DHT22;22448;51.298;6.430;2023-02-26T03:35:56;-1.30;99.90
35970;DHT22;22448;51.298;6.430;2023-02-26T03:39:21;-1.20;99.90
35970;DHT22;22448;51.298;6.430;2023-02-26T03:41:34;-1.30;99.90
35970;DHT22;22448;51.298;6.430;2023-02-26T03:44:21;-1.30;99.90
35970;DHT22;22448;51.298;6.430;2023-02-26T03:46:55;-1.30;99.90
35970;DHT22;22448;51.298;6.430;2023-02-26T03:49:33;-1.30;99.90
35970;DHT22;22448;51.298;6.430;2023-02-26T03:52:02;-1.30;99.90
35970;DHT22;22448;51.298;6.430;2023-02-26T03:54:57;-1.30;99.90
35970;DHT22;22448;51.298;6.430;2023-02-26T03:57:49;-1.40;99.90
35970;DHT22;22448;51.298;6.430;2023-02-26T04:00:26;-1.40;99.90
35970;DHT22;22448;51.298;6.430;2023-02-26T04:03:20;-1.40;99.90
35970;DHT22;22448;51.298;6.430;2023-02-26T04:05:51;-1.40;99.90
35970;DHT22;22448;51.298;6.430;2023-02-26T04:08:20;-1.50;99.90
35970;DHT22;22448;51.298;6.430;2023-02-26T04:10:57;-1.50;99.90
35970;DHT22;22448;51.298;6.430;2023-02-26T04:13:25;-1.50;99.90
35970;DHT22;22448;51.298;6.430;2023-02-26T04:15:52;-1.50;99.90
35970;DHT22;22448;51.298;6.430;2023-02-26T04:18:20;-1.50;99.90
35970;DHT22;22448;51.298;6.430;2023-02-26T04:20:47;-1.50;99.90
35970;DHT22;22448;51.298;6.430;2023-02-26T04:23:14;-1.50;99.90
35970;DHT22;22448;51.298;6.430;2023-02-26T04:25:41;-1.50;99.90
35970;DHT22;22448;51.298;6.430;2023-02-26T04:28:09;-1.50;99.90
35970;DHT22;22448;51.298;6.430;2023-02-26T04:30:36;-1.60;99.90
35970;DHT22;22448;51.298;6.430;2023-02-26T04:33:05;-1.60;99.90
35970;DHT22;22448;51.298;6.430;2023-02-26T04:35:33;-1.60;99.90
35970;DHT22;22448;51.298;6.430;2023-02-26T04:38:00;-1.60;99.90
35970;DHT22;22448;51.298;6.430;2023-02-26T04:40:27;-1.60;99.90
35970;DHT22;22448;51.298;6.430;2023-02-26T04:42:54;-1.60;99.90
35970;DHT22;22448;51.298;6.430;2023-02-26T04:45:24;-1.60;99.90
35970;DHT22;22448;51.298;6.430;2023-02-26T04:47:52;-1.60;99.90
35970;DHT22;22448;51.298;6.430;2023-02-26T04:50:19;-1.60;99.90
35970;DHT22;22448;51.298;6.430;2023-02-26T04:52:49;-1.60;99.90
35970;DHT22;22448;51.298;6.430;2023-02-26T04:55:16;-1.60;99.90
35970;DHT22;22448;51.298;6.430;2023-02-26T04:57:43;-1.70;99.90
35970;DHT22;22448;51.298;6.430;2023-02-26T05:00:11;-1.70;99.90
35970;DHT22;22448;51.298;6.430;2023-02-26T05:02:39;-1.70;99.90
35970;DHT22;22448;51.298;6.430;2023-02-26T05:05:06;-1.70;99.90
35970;DHT22;22448;51.298;6.430;2023-02-26T05:07:33;-1.70;99.90
35970;DHT22;22448;51.298;6.430;2023-02-26T05:10:00;-1.70;99.90
35970;DHT22;22448;51.298;6.430;2023-02-26T05:12:27;-1.70;99.90
35970;DHT22;22448;51.298;6.430;2023-02-26T05:14:54;-1.70;99.90
35970;DHT22;22448;51.298;6.430;2023-02-26T05:17:21;-1.80;99.90
35970;DHT22;22448;51.298;6.430;2023-02-26T05:19:49;-1.80;99.90
35970;DHT22;22448;51.298;6.430;2023-02-26T05:22:15;-1.80;99.90
35970;DHT22;22448;51.298;6.430;2023-02-26T05:24:43;-1.80;99.90
35970;DHT22;22448;51.298;6.430;2023-02-26T05:27:11;-1.80;99.90
35970;DHT22;22448;51.298;6.430;2023-02-26T05:29:42;-1.90;99.90
35970;DHT22;22448;51.298;6.430;2023-02-26T05:32:12;-1.80;99.90
35970;DHT22;22448;51.298;6.430;2023-02-26T05:34:39;-1.90;99.90
35970;DHT22;22448;51.298;6.430;2023-02-26T05:37:06;-1.90;99.90
35970;DHT22;22448;51.298;6.430;2023-02-26T05:39:33;-1.90;99.90
35970;DHT22;22448;51.298;6.430;2023-02-26T05:42:00;-1.90;99.90
35970;DHT22;22448;51.298;6.430;2023-02-26T05:44:27;-1.90;99.90
35970;DHT22;22448;51.298;6.430;2023-02-26T05:46:54;-1.90;99.90
35970;DHT22;22448;51.298;6.430;2023-02-26T05:49:21;-2.00;99.90
35970;DHT22;22448;51.298;6.430;2023-02-26T05:51:48;-2.00;99.90
35970;DHT22;22448;51.298;6.430;2023-02-26T05:54:15;-2.00;99.90
35970;DHT22;22448;51.298;6.430;2023-02-26T05:56:42;-2.00;99.90
35970;DHT22;22448;51.298;6.430;2023-02-26T05:59:09;-2.00;99.90
35970;DHT22;22448;51.298;6.430;2023-02-26T06:01:36;-2.10;99.90
35970;DHT22;22448;51.298;6.430;2023-02-26T06:04:04;-2.10;99.90
35970;DHT22;22448;51.298;6.430;2023-02-26T06:06:32;-2.10;99.90
35970;DHT22;22448;51.298;6.430;2023-02-26T06:08:59;-2.10;99.90
35970;DHT22;22448;51.298;6.430;2023-02-26T06:11:28;-2.10;99.90
35970;DHT22;22448;51.298;6.430;2023-02-26T06:13:59;-2.10;99.90
35970;DHT22;22448;51.298;6.430;2023-02-26T06:16:26;-2.10;99.90
35970;DHT22;22448;51.298;6.430;2023-02-26T06:18:53;-2.10;99.90
35970;DHT22;22448;51.298;6.430;2023-02-26T06:21:20;-2.10;99.90
35970;DHT22;22448;51.298;6.430;2023-02-26T06:23:47;-2.10;99.90
35970;DHT22;22448;51.298;6.430;2023-02-26T06:26:14;-2.10;99.90
35970;DHT22;22448;51.298;6.430;2023-02-26T06:28:41;-2.10;99.90
35970;DHT22;22448;51.298;6.430;2023-02-26T06:31:08;-2.10;99.90
35970;DHT22;22448;51.298;6.430;2023-02-26T06:33:36;-2.10;99.90
35970;DHT22;22448;51.298;6.430;2023-02-26T06:36:12;-2.10;99.90
35970;DHT22;22448;51.298;6.430;2023-02-26T06:38:39;-2.10;99.90
35970;DHT22;22448;51.298;6.430;2023-02-26T06:41:06;-2.00;99.90
35970;DHT22;22448;51.298;6.430;2023-02-26T06:43:34;-2.00;99.90
35970;DHT22;22448;51.298;6.430;2023-02-26T06:46:01;-1.90;99.90
35970;DHT22;22448;51.298;6.430;2023-02-26T06:48:28;-1.90;99.90
35970;DHT22;22448;51.298;6.430;2023-02-26T06:50:55;-1.90;99.90
35970;DHT22;22448;51.298;6.430;2023-02-26T06:53:22;-1.90;99.90
35970;DHT22;22448;51.298;6.430;2023-02-26T06:55:51;-1.90;99.90
35970;DHT22;22448;51.298;6.430;2023-02-26T06:58:19;-1.80;99.90
35970;DHT22;22448;51.298;6.430;2023-02-26T07:00:47;-1.90;99.90
35970;DHT22;22448;51.298;6.430;2023-02-26T07:03:15;-1.80;99.90
35970;DHT22;22448;51.298;6.430;2023-02-26T07:05:44;-1.80;99.90
35970;DHT22;22448;51.298;6.430;2023-02-26T07:08:11;-1.70;99.90
35970;DHT22;22448;51.298;6.430;2023-02-26T07:10:40;-1.70;99.90
35970;DHT22;22448;51.298;6.430;2023-02-26T07:13:07;-1.70;99.90
35970;DHT22;22448;51.298;6.430;2023-02-26T07:15:34;-1.60;99.90
35970;DHT22;22448;51.298;6.430;2023-02-26T07:18:01;-1.60;99.90
35970;DHT22;22448;51.298;6.430;2023-02-26T07:20:28;-1.50;99.90
35970;DHT22;22448;51.298;6.430;2023-02-26T07:22:55;-1.50;99.90
35970;DHT22;22448;51.298;6.430;2023-02-26T07:25:23;-1.50;99.90
35970;DHT22;22448;51.298;6.430;2023-02-26T07:27:51;-1.40;99.90
35970;DHT22;22448;51.298;6.430;2023-02-26T07:30:19;-0.90;99.90
35970;DHT22;22448;51.298;6.430;2023-02-26T07:32:46;-0.30;99.90
35970;DHT22;22448;51.298;6.430;2023-02-26T07:35:13;0.00;99.90
35970;DHT22;22448;51.298;6.430;2023-02-26T07:37:40;0.40;99.90
35970;DHT22;22448;51.298;6.430;2023-02-26T07:40:08;0.30;99.90
35970;DHT22;22448;51.298;6.430;2023-02-26T07:42:35;0.90;99.90
35970;DHT22;22448;51.298;6.430;2023-02-26T07:45:03;1.60;99.90
35970;DHT22;22448;51.298;6.430;2023-02-26T07:47:30;2.40;99.90
35970;DHT22;22448;51.298;6.430;2023-02-26T07:49:57;1.80;99.90
35970;DHT22;22448;51.298;6.430;2023-02-26T07:52:24;1.10;99.90
35970;DHT22;22448;51.298;6.430;2023-02-26T07:54:51;0.80;99.90
35970;DHT22;22448;51.298;6.430;2023-02-26T07:57:18;1.20;99.90
35970;DHT22;22448;51.298;6.430;2023-02-26T07:59:45;1.60;99.90
35970;DHT22;22448;51.298;6.430;2023-02-26T08:02:13;1.50;99.90
35970;DHT22;22448;51.298;6.430;2023-02-26T08:04:41;2.60;99.90
35970;DHT22;22448;51.298;6.430;2023-02-26T08:07:08;2.30;99.90
35970;DHT22;22448;51.298;6.430;2023-02-26T08:09:36;1.90;99.90
35970;DHT22;22448;51.298;6.430;2023-02-26T08:12:03;1.80;99.90
35970;DHT22;22448;51.298;6.430;2023-02-26T08:14:30;1.80;99.90
35970;DHT22;22448;51.298;6.430;2023-02-26T08:16:57;1.90;99.90
35970;DHT22;22448;51.298;6.430;2023-02-26T08:19:24;2.50;99.90
35970;DHT22;22448;51.298;6.430;2023-02-26T08:21:51;3.00;99.90
35970;DHT22;22448;51.298;6.430;2023-02-26T08:24:21;2.90;99.90
35970;DHT22;22448;51.298;6.430;2023-02-26T08:26:48;2.50;99.90
35970;DHT22;22448;51.298;6.430;2023-02-26T08:29:15;2.50;99.90
35970;DHT22;22448;51.298;6.430;2023-02-26T08:31:43;2.00;99.90
35970;DHT22;22448;51.298;6.430;2023-02-26T08:34:10;2.00;99.90
35970;DHT22;22448;51.298;6.430;2023-02-26T08:36:37;3.00;99.90
35970;DHT22;22448;51.298;6.430;2023-02-26T08:39:04;3.20;99.90
35970;DHT22;22448;51.298;6.430;2023-02-26T08:41:32;3.20;99.90
35970;DHT22;22448;51.298;6.430;2023-02-26T08:44:02;3.30;99.90
35970;DHT22;22448;51.298;6.430;2023-02-26T08:46:29;3.80;99.90
35970;DHT22;22448;51.298;6.430;2023-02-26T08:48:56;4.50;99.90
35970;DHT22;22448;51.298;6.430;2023-02-26T08:51:23;4.90;99.90
35970;DHT22;22448;51.298;6.430;2023-02-26T08:53:51;4.80;99.90
35970;DHT22;22448;51.298;6.430;2023-02-26T08:56:18;5.00;99.90
35970;DHT22;22448;51.298;6.430;2023-02-26T08:58:45;4.80;99.90
35970;DHT22;22448;51.298;6.430;2023-02-26T09:01:12;4.40;99.90
35970;DHT22;22448;51.298;6.430;2023-02-26T09:03:39;4.40;99.90
35970;DHT22;22448;51.298;6.430;2023-02-26T09:06:06;4.50;99.90
35970;DHT22;22448;51.298;6.430;2023-02-26T09:08:33;4.30;99.90
35970;DHT22;22448;51.298;6.430;2023-02-26T09:11:01;4.20;99.90
35970;DHT22;22448;51.298;6.430;2023-02-26T09:13:29;4.30;99.90
35970;DHT22;22448;51.298;6.430;2023-02-26T09:15:56;4.10;99.90
35970;DHT22;22448;51.298;6.430;2023-02-26T09:18:23;3.80;99.90
35970;DHT22;22448;51.298;6.430;2023-02-26T09:20:50;3.70;99.90
35970;DHT22;22448;51.298;6.430;2023-02-26T09:23:18;3.70;99.90
35970;DHT22;22448;51.298;6.430;2023-02-26T09:25:45;3.30;99.90
35970;DHT22;22448;51.298;6.430;2023-02-26T09:28:12;3.40;99.90
35970;DHT22;22448;51.298;6.430;2023-02-26T09:30:39;3.40;99.90
35970;DHT22;22448;51.298;6.430;2023-02-26T09:33:06;3.10;99.90
35970;DHT22;22448;51.298;6.430;2023-02-26T09:35:33;2.90;99.90
35970;DHT22;22448;51.298;6.430;2023-02-26T09:38:00;2.60;99.90
35970;DHT22;22448;51.298;6.430;2023-02-26T09:40:49;2.40;99.90
35970;DHT22;22448;51.298;6.430;2023-02-26T09:46:05;2.20;99.90
35970;DHT22;22448;51.298;6.430;2023-02-26T09:48:38;2.20;99.90
35970;DHT22;22448;51.298;6.430;2023-02-26T09:51:10;2.50;99.90
35970;DHT22;22448;51.298;6.430;2023-02-26T09:53:40;2.60;99.90
35970;DHT22;22448;51.298;6.430;2023-02-26T09:56:14;2.60;99.90
35970;DHT22;22448;51.298;6.430;2023-02-26T09:58:43;2.80;99.90
35970;DHT22;22448;51.298;6.430;2023-02-26T10:01:33;3.10;99.90
35970;DHT22;22448;51.298;6.430;2023-02-26T10:04:36;3.10;99.90
35970;DHT22;22448;51.298;6.430;2023-02-26T10:10:02;3.00;99.90
35970;DHT22;22448;51.298;6.430;2023-02-26T10:12:34;2.90;99.90
35970;DHT22;22448;51.298;6.430;2023-02-26T10:15:11;3.00;99.90
35970;DHT22;22448;51.298;6.430;2023-02-26T10:23:31;2.40;99.90
35970;DHT22;22448;51.298;6.430;2023-02-26T10:28:58;2.30;99.90
35970;DHT22;22448;51.298;6.430;2023-02-26T10:35:04;2.90;99.90
35970;DHT22;22448;51.298;6.430;2023-02-26T10:37:56;3.20;99.90
35970;DHT22;22448;51.298;6.430;2023-02-26T10:40:49;3.60;99.90
35970;DHT22;22448;51.298;6.430;2023-02-26T10:43:25;3.60;99.90
35970;DHT22;22448;51.298;6.430;2023-02-26T10:51:37;3.60;99.90
35970;DHT22;22448;51.298;6.430;2023-02-26T10:54:28;3.30;99.90
35970;DHT22;22448;51.298;6.430;2023-02-26T10:56:55;3.10;99.90
35970;DHT22;22448;51.298;6.430;2023-02-26T10:59:22;2.90;99.90
35970;DHT22;22448;51.298;6.430;2023-02-26T11:01:50;2.90;99.90
35970;DHT22;22448;51.298;6.430;2023-02-26T11:04:21;3.10;99.90
35970;DHT22;22448;51.298;6.430;2023-02-26T11:06:57;3.30;99.90
35970;DHT22;22448;51.298;6.430;2023-02-26T11:09:32;3.50;99.90
35970;DHT22;22448;51.298;6.430;2023-02-26T11:12:05;3.80;99.90
35970;DHT22;22448;51.298;6.430;2023-02-26T11:14:32;4.00;99.90
35970;DHT22;22448;51.298;6.430;2023-02-26T11:17:03;4.10;99.90
35970;DHT22;22448;51.298;6.430;2023-02-26T11:19:34;4.00;99.90
35970;DHT22;22448;51.298;6.430;2023-02-26T11:22:03;4.00;99.90
35970;DHT22;22448;51.298;6.430;2023-02-26T11:24:35;3.90;99.90
35970;DHT22;22448;51.298;6.430;2023-02-26T11:27:05;3.50;99.90
35970;DHT22;22448;51.298;6.430;2023-02-26T11:29:42;3.40;99.90
35970;DHT22;22448;51.298;6.430;2023-02-26T11:32:20;3.30;99.90
35970;DHT22;22448;51.298;6.430;2023-02-26T11:34:50;3.40;99.90
35970;DHT22;22448;51.298;6.430;2023-02-26T11:37:19;3.40;99.90
35970;DHT22;22448;51.298;6.430;2023-02-26T11:39:57;3.30;99.90
35970;DHT22;22448;51.298;6.430;2023-02-26T11:42:25;3.40;99.90
35970;DHT22;22448;51.298;6.430;2023-02-26T11:44:53;3.40;99.90
35970;DHT22;22448;51.298;6.430;2023-02-26T11:47:28;3.40;99.90
35970;DHT22;22448;51.298;6.430;2023-02-26T11:50:02;3.40;99.90
35970;DHT22;22448;51.298;6.430;2023-02-26T11:52:32;3.40;99.90
35970;DHT22;22448;51.298;6.430;2023-02-26T11:55:02;3.40;99.90
35970;DHT22;22448;51.298;6.430;2023-02-26T11:57:31;3.40;99.90
35970;DHT22;22448;51.298;6.430;2023-02-26T12:00:00;3.50;99.90
35970;DHT22;22448;51.298;6.430;2023-02-26T12:02:32;3.50;99.90
35970;DHT22;22448;51.298;6.430;2023-02-26T12:05:04;3.50;99.90
35970;DHT22;22448;51.298;6.430;2023-02-26T12:07:31;3.60;99.90
35970;DHT22;22448;51.298;6.430;2023-02-26T12:09:59;3.80;99.90
35970;DHT22;22448;51.298;6.430;2023-02-26T12:18:01;3.90;99.50
35970;DHT22;22448;51.298;6.430;2023-02-26T12:23:50;3.60;99.70
35970;DHT22;22448;51.298;6.430;2023-02-26T12:26:32;3.60;99.90
35970;DHT22;22448;51.298;6.430;2023-02-26T12:31:55;3.10;99.90
35970;DHT22;22448;51.298;6.430;2023-02-26T12:34:36;3.10;99.90
35970;DHT22;22448;51.298;6.430;2023-02-26T12:40:03;3.30;99.90
35970;DHT22;22448;51.298;6.430;2023-02-26T12:42:39;3.30;99.90
35970;DHT22;22448;51.298;6.430;2023-02-26T12:55:53;3.70;98.80
35970;DHT22;22448;51.298;6.430;2023-02-26T13:04:41;4.20;98.10
35970;DHT22;22448;51.298;6.430;2023-02-26T13:10:03;4.20;98.00
35970;DHT22;22448;51.298;6.430;2023-02-26T13:13:00;4.20;97.20
35970;DHT22;22448;51.298;6.430;2023-02-26T13:21:05;4.40;98.60
35970;DHT22;22448;51.298;6.430;2023-02-26T13:23:59;4.40;96.80
35970;DHT22;22448;51.298;6.430;2023-02-26T13:26:25;4.30;96.20
35970;DHT22;22448;51.298;6.430;2023-02-26T13:28:59;4.30;95.90
35970;DHT22;22448;51.298;6.430;2023-02-26T13:31:35;4.40;96.80
35970;DHT22;22448;51.298;6.430;2023-02-26T13:34:12;4.50;96.70
35970;DHT22;22448;51.298;6.430;2023-02-26T13:36:41;4.50;96.20
35970;DHT22;22448;51.298;6.430;2023-02-26T13:39:22;4.50;96.20
35970;DHT22;22448;51.298;6.430;2023-02-26T13:47:20;4.50;96.40
35970;DHT22;22448;51.298;6.430;2023-02-26T13:52:34;4.00;95.70
35970;DHT22;22448;51.298;6.430;2023-02-26T13:55:04;4.00;96.00
35970;DHT22;22448;51.298;6.430;2023-02-26T14:00:33;4.30;95.00
35970;DHT22;22448;51.298;6.430;2023-02-26T14:08:27;4.50;96.00
35970;DHT22;22448;51.298;6.430;2023-02-26T14:14:11;4.60;96.00
35970;DHT22;22448;51.298;6.430;2023-02-26T14:16:40;4.70;96.20
35970;DHT22;22448;51.298;6.430;2023-02-26T14:21:51;4.60;95.80
35970;DHT22;22448;51.298;6.430;2023-02-26T14:24:28;4.70;95.50
35970;DHT22;22448;51.298;6.430;2023-02-26T14:27:29;4.70;95.40
35970;DHT22;22448;51.298;6.430;2023-02-26T14:30:03;4.60;95.20
35970;DHT22;22448;51.298;6.430;2023-02-26T14:32:33;4.60;95.40
35970;DHT22;22448;51.298;6.430;2023-02-26T14:35:08;4.60;95.20
35970;DHT22;22448;51.298;6.430;2023-02-26T14:37:36;4.70;95.20
35970;DHT22;22448;51.298;6.430;2023-02-26T14:40:16;4.70;95.80
35970;DHT22;22448;51.298;6.430;2023-02-26T14:47:53;4.80;94.90
35970;DHT22;22448;51.298;6.430;2023-02-26T14:50:22;4.80;94.90
35970;DHT22;22448;51.298;6.430;2023-02-26T14:55:52;4.70;95.80
35970;DHT22;22448;51.298;6.430;2023-02-26T15:01:51;4.50;94.80
35970;DHT22;22448;51.298;6.430;2023-02-26T15:11:07;4.40;95.10
35970;DHT22;22448;51.298;6.430;2023-02-26T15:13:58;4.40;94.90
35970;DHT22;22448;51.298;6.430;2023-02-26T15:21:54;4.50;95.70
35970;DHT22;22448;51.298;6.430;2023-02-26T15:24:28;4.50;95.30
35970;DHT22;22448;51.298;6.430;2023-02-26T15:27:01;4.40;94.80
35970;DHT22;22448;51.298;6.430;2023-02-26T15:29:32;4.30;95.20
35970;DHT22;22448;51.298;6.430;2023-02-26T15:34:46;4.30;95.90
35970;DHT22;22448;51.298;6.430;2023-02-26T15:37:23;4.30;95.50
35970;DHT22;22448;51.298;6.430;2023-02-26T15:39:52;4.40;95.70
35970;DHT22;22448;51.298;6.430;2023-02-26T15:42:22;4.40;96.50
35970;DHT22;22448;51.298;6.430;2023-02-26T15:44:51;4.40;96.70
35970;DHT22;22448;51.298;6.430;2023-02-26T15:47:23;4.40;96.40
35970;DHT22;22448;51.298;6.430;2023-02-26T15:49:50;4.40;96.20
35970;DHT22;22448;51.298;6.430;2023-02-26T15:52:21;4.40;96.60
35970;DHT22;22448;51.298;6.430;2023-02-26T15:54:57;4.40;97.20
35970;DHT22;22448;51.298;6.430;2023-02-26T15:57:26;4.30;96.60
35970;DHT22;22448;51.298;6.430;2023-02-26T16:00:00;4.20;96.50
35970;DHT22;22448;51.298;6.430;2023-02-26T16:02:37;4.10;96.70
35970;DHT22;22448;51.298;6.430;2023-02-26T16:05:07;4.00;97.20
35970;DHT22;22448;51.298;6.430;2023-02-26T16:07:34;3.90;97.60
35970;DHT22;22448;51.298;6.430;2023-02-26T16:10:13;3.90;98.10
35970;DHT22;22448;51.298;6.430;2023-02-26T16:12:42;3.80;98.00
35970;DHT22;22448;51.298;6.430;2023-02-26T16:15:14;3.90;97.80
35970;DHT22;22448;51.298;6.430;2023-02-26T16:17:44;3.80;98.30
35970;DHT22;22448;51.298;6.430;2023-02-26T16:20:15;3.80;98.30
35970;DHT22;22448;51.298;6.430;2023-02-26T16:23:09;3.70;98.50
35970;DHT22;22448;51.298;6.430;2023-02-26T16:25:57;3.70;99.00
35970;DHT22;22448;51.298;6.430;2023-02-26T16:28:38;3.70;98.90
35970;DHT22;22448;51.298;6.430;2023-02-26T16:31:22;3.60;98.70
35970;DHT22;22448;51.298;6.430;2023-02-26T16:33:57;3.50;99.10
35970;DHT22;22448;51.298;6.430;2023-02-26T16:36:39;3.50;98.90
35970;DHT22;22448;51.298;6.430;2023-02-26T16:41:36;3.40;99.20
35970;DHT22;22448;51.298;6.430;2023-02-26T16:46:57;3.30;99.50
35970;DHT22;22448;51.298;6.430;2023-02-26T16:49:35;3.20;99.90
35970;DHT22;22448;51.298;6.430;2023-02-26T16:52:04;3.10;99.90
35970;DHT22;22448;51.298;6.430;2023-02-26T16:54:36;3.10;99.90
35970;DHT22;22448;51.298;6.430;2023-02-26T16:57:24;3.00;99.90
35970;DHT22;22448;51.298;6.430;2023-02-26T16:59:56;2.90;99.90
35970;DHT22;22448;51.298;6.430;2023-02-26T17:02:28;2.90;99.90
35970;DHT22;22448;51.298;6.430;2023-02-26T17:05:00;2.90;99.90
35970;DHT22;22448;51.298;6.430;2023-02-26T17:07:35;2.80;99.90
35970;DHT22;22448;51.298;6.430;2023-02-26T17:10:31;2.60;99.90
35970;DHT22;22448;51.298;6.430;2023-02-26T17:13:37;2.60;99.90
35970;DHT22;22448;51.298;6.430;2023-02-26T17:16:00;2.50;99.90
35970;DHT22;22448;51.298;6.430;2023-02-26T17:18:28;2.50;99.90
35970;DHT22;22448;51.298;6.430;2023-02-26T17:20:58;2.40;99.90
35970;DHT22;22448;51.298;6.430;2023-02-26T17:23:31;2.30;99.90
35970;DHT22;22448;51.298;6.430;2023-02-26T17:25:59;2.30;99.90
35970;DHT22;22448;51.298;6.430;2023-02-26T17:28:31;2.30;99.90
35970;DHT22;22448;51.298;6.430;2023-02-26T17:31:03;2.30;99.90
35970;DHT22;22448;51.298;6.430;2023-02-26T17:33:30;2.30;99.90
35970;DHT22;22448;51.298;6.430;2023-02-26T17:35:59;2.30;99.90
35970;DHT22;22448;51.298;6.430;2023-02-26T17:38:26;2.30;99.90
35970;DHT22;22448;51.298;6.430;2023-02-26T17:40:53;2.30;99.90
35970;DHT22;22448;51.298;6.430;2023-02-26T17:43:21;2.30;99.90
35970;DHT22;22448;51.298;6.430;2023-02-26T17:45:48;2.30;99.90
35970;DHT22;22448;51.298;6.430;2023-02-26T17:48:16;2.30;99.90
35970;DHT22;22448;51.298;6.430;2023-02-26T17:50:52;2.20;99.90
35970;DHT22;22448;51.298;6.430;2023-02-26T17:53:22;2.20;99.90
35970;DHT22;22448;51.298;6.430;2023-02-26T17:55:51;2.10;99.90
35970;DHT22;22448;51.298;6.430;2023-02-26T17:58:28;2.00;99.90
35970;DHT22;22448;51.298;6.430;2023-02-26T18:00:56;2.00;99.90
35970;DHT22;22448;51.298;6.430;2023-02-26T18:03:23;2.00;99.90
35970;DHT22;22448;51.298;6.430;2023-02-26T18:05:51;1.90;99.90
35970;DHT22;22448;51.298;6.430;2023-02-26T18:08:24;1.90;99.90
35970;DHT22;22448;51.298;6.430;2023-02-26T18:10:53;1.80;99.90
35970;DHT22;22448;51.298;6.430;2023-02-26T18:13:20;1.80;99.90
35970;DHT22;22448;51.298;6.430;2023-02-26T18:15:48;1.70;99.90
35970;DHT22;22448;51.298;6.430;2023-02-26T18:18:16;1.70;99.90
35970;DHT22;22448;51.298;6.430;2023-02-26T18:20:43;1.70;99.90
35970;DHT22;22448;51.298;6.430;2023-02-26T18:23:11;1.60;99.90
35970;DHT22;22448;51.298;6.430;2023-02-26T18:25:40;1.60;99.90
35970;DHT22;22448;51.298;6.430;2023-02-26T18:28:20;1.60;99.90
35970;DHT22;22448;51.298;6.430;2023-02-26T18:30:49;1.60;99.90
35970;DHT22;22448;51.298;6.430;2023-02-26T18:33:17;1.50;99.90
35970;DHT22;22448;51.298;6.430;2023-02-26T18:35:46;1.50;99.90
35970;DHT22;22448;51.298;6.430;2023-02-26T18:38:16;1.50;99.90
35970;DHT22;22448;51.298;6.430;2023-02-26T18:40:44;1.50;99.90
35970;DHT22;22448;51.298;6.430;2023-02-26T18:43:12;1.40;99.90
35970;DHT22;22448;51.298;6.430;2023-02-26T18:45:40;1.40;99.90
35970;DHT22;22448;51.298;6.430;2023-02-26T18:48:13;1.40;99.90
35970;DHT22;22448;51.298;6.430;2023-02-26T18:50:42;1.40;99.90
35970;DHT22;22448;51.298;6.430;2023-02-26T18:53:10;1.30;99.90